createdAt,value
2022-10-03T00:00:41.686Z,12.05
2022-10-03T00:04:58.879Z,12.05
2022-10-03T00:09:03.388Z,12.05
2022-10-03T00:13:31.101Z,12.07
2022-10-03T00:17:52.918Z,12.11
2022-10-03T00:22:12.504Z,12.11
2022-10-03T00:26:49.211Z,12.15
2022-10-03T00:31:17.865Z,12.16
2022-10-03T00:35:59.423Z,12.15
2022-10-03T00:40:22.993Z,12.15
2022-10-03T00:44:24.472Z,12.18
2022-10-03T00:48:54.917Z,12.16
2022-10-03T00:53:30.704Z,12.15
2022-10-03T00:57:50.727Z,12.13
2022-10-03T01:01:52.317Z,12.11
2022-10-03T01:06:06.050Z,12.05
2022-10-03T01:10:17.506Z,12.04
2022-10-03T01:14:31.139Z,11.98
2022-10-03T01:18:44.924Z,11.94
2022-10-03T01:22:58.465Z,11.88
2022-10-03T01:27:13.502Z,11.84
2022-10-03T01:31:18.513Z,11.82
2022-10-03T01:35:32.705Z,11.78
2022-10-03T01:39:37.043Z,11.75
2022-10-03T01:44:00.641Z,11.74
2022-10-03T01:48:07.883Z,11.69
2022-10-03T01:52:30.965Z,11.62
2022-10-03T01:56:52.175Z,11.59
2022-10-03T02:01:07.264Z,11.57
2022-10-03T02:05:36.526Z,11.56
2022-10-03T02:09:50.012Z,11.51
2022-10-03T02:13:58.823Z,11.51
2022-10-03T02:18:24.059Z,11.51
2022-10-03T02:22:30.246Z,11.49
2022-10-03T02:26:31.703Z,11.42
2022-10-03T02:31:07.648Z,11.42
2022-10-03T02:35:37.212Z,11.35
2022-10-03T02:40:05.364Z,11.31
2022-10-03T02:44:25.625Z,11.30
2022-10-03T02:49:14.542Z,11.26
2022-10-03T02:53:41.902Z,11.20
2022-10-03T02:58:06.294Z,11.19
2022-10-03T03:02:29.922Z,11.17
2022-10-03T03:06:52.906Z,11.12
2022-10-03T03:11:29.903Z,11.09
2022-10-03T03:16:04.456Z,11.06
2022-10-03T03:20:24.666Z,11.05
2022-10-03T03:24:53.793Z,11.01
2022-10-03T03:29:40.353Z,10.95
2022-10-03T03:33:58.246Z,10.93
2022-10-03T03:38:12.653Z,10.91
2022-10-03T03:42:23.717Z,10.84
2022-10-03T03:47:04.057Z,10.80
2022-10-03T03:51:19.814Z,10.75
2022-10-03T03:55:40.875Z,10.72
2022-10-03T03:59:57.521Z,10.63
2022-10-03T04:04:05.023Z,10.60
2022-10-03T04:08:37.513Z,10.55
2022-10-03T04:13:01.724Z,10.51
2022-10-03T04:17:49.567Z,10.44
2022-10-03T04:22:29.631Z,10.36
2022-10-03T04:27:22.497Z,10.35
2022-10-03T04:31:44.364Z,10.28
2022-10-03T04:36:05.514Z,10.18
2022-10-03T04:40:11.736Z,10.22
2022-10-03T04:44:35.157Z,10.20
2022-10-03T04:48:48.202Z,10.18
2022-10-03T04:53:19.427Z,10.14
2022-10-03T04:57:51.630Z,10.13
2022-10-03T05:02:02.303Z,10.09
2022-10-03T05:06:30.565Z,10.07
2022-10-03T05:10:55.657Z,10.07
2022-10-03T05:15:02.921Z,9.96
2022-10-03T05:19:28.792Z,9.98
2022-10-03T05:23:44.968Z,9.95
2022-10-03T05:28:26.810Z,9.93
2022-10-03T05:32:41.161Z,9.92
2022-10-03T05:37:25.565Z,9.81
2022-10-03T05:41:35.508Z,9.81
2022-10-03T05:46:01.100Z,9.81
2022-10-03T05:50:15.299Z,9.81
2022-10-03T05:54:59.068Z,9.80
2022-10-03T05:59:22.638Z,9.80
2022-10-03T06:03:30.602Z,9.77
2022-10-03T06:08:10.375Z,9.77
2022-10-03T06:12:33.066Z,9.74
2022-10-03T06:17:04.401Z,9.73
2022-10-03T06:21:28.796Z,9.78
2022-10-03T06:26:00.910Z,9.81
2022-10-03T06:30:17.698Z,9.92
2022-10-03T06:34:31.500Z,9.88
2022-10-03T06:39:10.699Z,9.89
2022-10-03T06:43:38.140Z,9.92
2022-10-03T06:47:53.742Z,9.99
2022-10-03T06:52:08.323Z,10.07
2022-10-03T06:56:41.129Z,10.13
2022-10-03T07:01:13.075Z,10.20
2022-10-03T07:05:14.566Z,10.31
2022-10-03T07:10:03.174Z,10.36
2022-10-03T07:14:16.030Z,10.49
2022-10-03T07:18:26.455Z,10.55
2022-10-03T07:22:59.227Z,10.62
2022-10-03T07:27:13.069Z,10.72
2022-10-03T07:32:02.318Z,10.81
2022-10-03T07:36:44.615Z,10.93
2022-10-03T07:41:04.203Z,11.02
2022-10-03T07:45:30.191Z,11.09
2022-10-03T07:50:01.003Z,11.19
2022-10-03T07:54:28.803Z,11.30
2022-10-03T07:58:58.721Z,11.36
2022-10-03T08:03:15.507Z,11.39
2022-10-03T08:07:26.573Z,11.53
2022-10-03T08:11:51.753Z,11.62
2022-10-03T08:16:20.498Z,11.69
2022-10-03T08:20:23.165Z,11.78
2022-10-03T08:24:47.207Z,11.88
2022-10-03T08:29:08.629Z,12.00
2022-10-03T08:33:25.349Z,12.08
2022-10-03T08:38:03.969Z,12.15
2022-10-03T08:42:22.772Z,12.30
2022-10-03T08:46:43.264Z,12.44
2022-10-03T08:51:02.315Z,12.63
2022-10-03T08:55:16.005Z,12.76
2022-10-03T08:59:37.584Z,12.91
2022-10-03T09:04:09.819Z,13.06
2022-10-03T09:08:20.336Z,13.19
2022-10-03T09:12:42.720Z,13.27
2022-10-03T09:17:00.012Z,13.36
2022-10-03T09:21:26.440Z,13.36
2022-10-03T09:25:56.038Z,13.46
2022-10-03T09:30:10.953Z,13.59
2022-10-03T09:34:55.491Z,13.63
2022-10-03T09:39:15.991Z,13.76
2022-10-03T09:43:38.955Z,13.90
2022-10-03T09:48:18.202Z,14.02
2022-10-03T09:52:32.962Z,14.17
2022-10-03T09:57:01.758Z,14.23
2022-10-03T10:01:30.361Z,14.13
2022-10-03T10:05:58.890Z,14.20
2022-10-03T10:10:10.640Z,14.12
2022-10-03T10:14:30.189Z,14.24
2022-10-03T10:19:04.711Z,14.38
2022-10-03T10:23:27.692Z,14.49
2022-10-03T10:27:42.166Z,14.59
2022-10-03T10:32:19.004Z,14.72
2022-10-03T10:36:41.901Z,14.97
2022-10-03T10:41:08.989Z,15.12
2022-10-03T10:45:29.878Z,15.31
2022-10-03T10:49:53.479Z,15.59
2022-10-03T10:54:13.346Z,16.03
2022-10-03T10:59:19.820Z,16.22
2022-10-03T11:03:43.158Z,16.33
2022-10-03T11:08:03.326Z,16.32
2022-10-03T11:12:38.104Z,16.18
2022-10-03T11:17:25.020Z,16.16
2022-10-03T11:22:05.573Z,16.23
2022-10-03T11:26:37.713Z,16.26
2022-10-03T11:31:18.336Z,16.37
2022-10-03T11:35:57.220Z,16.52
2022-10-03T11:40:16.387Z,16.55
2022-10-03T11:44:31.152Z,16.54
2022-10-03T11:48:40.636Z,16.75
2022-10-03T11:53:15.156Z,16.98
2022-10-03T11:57:41.359Z,17.12
2022-10-03T12:01:58.466Z,17.43
2022-10-03T12:06:27.405Z,17.55
2022-10-03T12:10:43.708Z,17.58
2022-10-03T12:14:49.969Z,17.55
2022-10-03T12:18:56.986Z,17.66
2022-10-03T12:23:16.154Z,17.49
2022-10-03T12:27:30.291Z,17.33
2022-10-03T12:31:42.495Z,17.27
2022-10-03T12:36:07.677Z,17.28
2022-10-03T12:40:16.113Z,17.39
2022-10-03T12:44:47.366Z,17.60
2022-10-03T12:49:03.353Z,17.99
2022-10-03T12:53:17.478Z,18.31
2022-10-03T12:57:49.624Z,18.26
2022-10-03T13:01:56.848Z,18.07
2022-10-03T13:06:13.346Z,18.02
2022-10-03T13:10:28.785Z,17.89
2022-10-03T13:14:33.091Z,17.84
2022-10-03T13:18:49.331Z,17.84
2022-10-03T13:23:11.164Z,17.86
2022-10-03T13:27:38.005Z,17.91
2022-10-03T13:31:55.411Z,17.92
2022-10-03T13:36:05.382Z,17.94
2022-10-03T13:40:12.412Z,17.98
2022-10-03T13:44:22.440Z,18.01
2022-10-03T13:48:27.517Z,18.13
2022-10-03T13:52:41.581Z,18.42
2022-10-03T13:57:05.549Z,18.44
2022-10-03T14:01:14.697Z,18.36
2022-10-03T14:05:53.039Z,18.35
2022-10-03T14:10:10.491Z,18.50
2022-10-03T14:14:34.382Z,18.57
2022-10-03T14:18:53.889Z,18.86
2022-10-03T14:23:28.154Z,18.79
2022-10-03T14:27:43.764Z,18.69
2022-10-03T14:32:42.487Z,18.93
2022-10-03T14:36:49.443Z,19.12
2022-10-03T14:41:01.690Z,19.16
2022-10-03T14:45:15.456Z,19.34
2022-10-03T14:49:56.468Z,19.45
2022-10-03T14:54:05.187Z,19.28
2022-10-03T14:58:17.482Z,19.20
2022-10-03T15:02:45.039Z,19.30
2022-10-03T15:06:46.504Z,19.47
2022-10-03T15:10:50.739Z,19.53
2022-10-03T15:15:02.269Z,19.42
2022-10-03T15:19:09.913Z,19.43
2022-10-03T15:23:37.285Z,19.34
2022-10-03T15:27:41.815Z,19.31
2022-10-03T15:31:48.468Z,19.30
2022-10-03T15:35:55.350Z,19.23
2022-10-03T15:40:01.348Z,19.24
2022-10-03T15:44:10.402Z,19.06
2022-10-03T15:48:16.874Z,18.71
2022-10-03T15:52:20.463Z,18.59
2022-10-03T15:56:55.100Z,18.47
2022-10-03T16:01:11.837Z,18.56
2022-10-03T16:05:19.617Z,18.64
2022-10-03T16:10:04.110Z,18.62
2022-10-03T16:14:15.320Z,18.39
2022-10-03T16:18:19.757Z,18.23
2022-10-03T16:22:30.950Z,18.01
2022-10-03T16:26:52.303Z,17.83
2022-10-03T16:31:04.912Z,17.60
2022-10-03T16:35:25.411Z,17.35
2022-10-03T16:39:32.602Z,17.17
2022-10-03T16:43:34.707Z,17.00
2022-10-03T16:47:36.692Z,16.87
2022-10-03T16:51:43.681Z,16.75
2022-10-03T16:55:59.819Z,16.59
2022-10-03T17:00:07.824Z,16.41
2022-10-03T17:04:36.246Z,16.27
2022-10-03T17:08:47.242Z,16.11
2022-10-03T17:12:53.036Z,16.01
2022-10-03T17:17:06.648Z,15.91
2022-10-03T17:21:17.176Z,15.80
2022-10-03T17:25:18.632Z,15.73
2022-10-03T17:29:30.745Z,15.66
2022-10-03T17:33:50.768Z,15.58
2022-10-03T17:38:55.391Z,15.49
2022-10-03T17:43:05.728Z,15.40
2022-10-03T17:47:34.611Z,15.34
2022-10-03T17:51:40.360Z,15.28
2022-10-03T17:55:44.849Z,15.20
2022-10-03T18:00:15.536Z,15.15
2022-10-03T18:04:39.345Z,15.04
2022-10-03T18:08:41.676Z,14.97
2022-10-03T18:12:43.685Z,14.86
2022-10-03T18:16:47.355Z,14.82
2022-10-03T18:20:58.175Z,14.74
2022-10-03T18:25:25.928Z,14.67
2022-10-03T18:29:52.266Z,14.61
2022-10-03T18:34:08.229Z,14.56
2022-10-03T18:38:17.901Z,14.49
2022-10-03T18:42:26.578Z,14.44
2022-10-03T18:46:31.037Z,14.36
2022-10-03T18:50:53.864Z,14.31
2022-10-03T18:55:00.223Z,14.26
2022-10-03T18:59:10.406Z,14.21
2022-10-03T19:03:15.505Z,14.09
2022-10-03T19:07:22.357Z,14.05
2022-10-03T19:11:30.060Z,14.02
2022-10-03T19:15:50.282Z,13.98
2022-10-03T19:19:59.370Z,13.91
2022-10-03T19:24:05.526Z,13.87
2022-10-03T19:28:25.886Z,13.83
2022-10-03T19:32:47.310Z,13.79
2022-10-03T19:36:53.374Z,13.68
2022-10-03T19:41:00.212Z,13.59
2022-10-03T19:45:01.943Z,13.50
2022-10-03T19:49:26.149Z,13.48
2022-10-03T19:53:27.806Z,13.43
2022-10-03T19:57:51.844Z,13.39
2022-10-03T20:01:53.576Z,13.38
2022-10-03T20:05:57.831Z,13.36
2022-10-03T20:10:13.569Z,13.32
2022-10-03T20:14:29.302Z,13.27
2022-10-03T20:18:35.312Z,13.22
2022-10-03T20:22:37.507Z,13.19
2022-10-03T20:26:55.218Z,13.19
2022-10-03T20:30:56.939Z,13.14
2022-10-03T20:34:59.745Z,13.10
2022-10-03T20:39:23.334Z,12.92
2022-10-03T20:43:41.551Z,12.88
2022-10-03T20:47:46.683Z,12.88
2022-10-03T20:51:54.361Z,12.85
2022-10-03T20:55:57.894Z,12.81
2022-10-03T21:00:11.624Z,12.79
2022-10-03T21:04:25.256Z,12.73
2022-10-03T21:08:30.818Z,12.71
2022-10-03T21:12:40.781Z,12.70
2022-10-03T21:17:03.061Z,12.63
2022-10-03T21:21:34.167Z,12.49
2022-10-03T21:25:37.798Z,12.41
2022-10-03T21:29:52.486Z,12.33
2022-10-03T21:34:28.873Z,12.33
2022-10-03T21:38:32.913Z,12.31
2022-10-03T21:43:11.976Z,12.30
2022-10-03T21:47:52.672Z,12.29
2022-10-03T21:52:09.412Z,12.23
2022-10-03T21:56:25.113Z,12.19
2022-10-03T22:01:05.239Z,12.15
2022-10-03T22:05:16.982Z,12.13
2022-10-03T22:09:18.590Z,12.08
2022-10-03T22:13:23.430Z,12.03
2022-10-03T22:17:54.649Z,11.98
2022-10-03T22:22:11.518Z,11.88
2022-10-03T22:26:59.815Z,11.84
2022-10-03T22:31:25.923Z,11.81
2022-10-03T22:35:33.205Z,11.81
2022-10-03T22:39:36.385Z,11.75
2022-10-03T22:43:38.956Z,11.72
2022-10-03T22:47:42.552Z,11.70
2022-10-03T22:51:45.141Z,11.67
2022-10-03T22:55:50.998Z,11.49
2022-10-03T22:59:57.573Z,11.44
2022-10-03T23:03:59.582Z,11.46
2022-10-03T23:08:22.723Z,11.45
2022-10-03T23:12:27.992Z,11.41
2022-10-03T23:16:49.106Z,11.38
2022-10-03T23:20:56.524Z,11.33
2022-10-03T23:25:02.282Z,11.31
2022-10-03T23:29:12.648Z,11.24
2022-10-03T23:33:38.243Z,11.13
2022-10-03T23:37:42.523Z,11.17
2022-10-03T23:41:55.227Z,11.19
2022-10-03T23:46:13.451Z,11.19
2022-10-03T23:50:47.112Z,11.12
2022-10-03T23:54:49.228Z,11.13
2022-10-03T23:59:03.104Z,11.12
